sensor_id;sensor_type;location;lat;lon;timestamp;temperature;humidity
1103;DHT22;538;42.654;23.376;2022-12-07T00:01:28;6.90;66.60
1103;DHT22;538;42.654;23.376;2022-12-07T00:03:57;6.80;66.20
1103;DHT22;538;42.654;23.376;2022-12-07T00:06:31;6.80;66.70
1103;DHT22;538;42.654;23.376;2022-12-07T00:08:58;6.90;66.10
1103;DHT22;538;42.654;23.376;2022-12-07T00:11:26;6.70;66.60
1103;DHT22;538;42.654;23.376;2022-12-07T00:13:55;6.70;65.80
1103;DHT22;538;42.654;23.376;2022-12-07T00:16:30;6.80;66.60
1103;DHT22;538;42.654;23.376;2022-12-07T00:18:58;6.60;67.40
1103;DHT22;538;42.654;23.376;2022-12-07T00:21:28;6.50;68.40
1103;DHT22;538;42.654;23.376;2022-12-07T00:23:57;6.50;69.60
1103;DHT22;538;42.654;23.376;2022-12-07T00:26:25;6.30;73.10
1103;DHT22;538;42.654;23.376;2022-12-07T00:28:55;6.30;75.10
1103;DHT22;538;42.654;23.376;2022-12-07T00:31:24;6.20;75.50
1103;DHT22;538;42.654;23.376;2022-12-07T00:33:53;6.30;78.10
1103;DHT22;538;42.654;23.376;2022-12-07T00:36:22;6.20;78.00
1103;DHT22;538;42.654;23.376;2022-12-07T00:38:49;6.20;78.40
1103;DHT22;538;42.654;23.376;2022-12-07T00:41:19;6.10;77.60
1103;DHT22;538;42.654;23.376;2022-12-07T00:43:47;6.20;79.30
1103;DHT22;538;42.654;23.376;2022-12-07T00:46:15;6.40;78.30
1103;DHT22;538;42.654;23.376;2022-12-07T00:48:43;6.30;78.70
1103;DHT22;538;42.654;23.376;2022-12-07T00:51:13;6.50;77.70
1103;DHT22;538;42.654;23.376;2022-12-07T00:53:40;6.60;73.80
1103;DHT22;538;42.654;23.376;2022-12-07T00:56:14;6.60;74.30
1103;DHT22;538;42.654;23.376;2022-12-07T00:58:43;6.60;72.90
1103;DHT22;538;42.654;23.376;2022-12-07T01:01:10;6.70;70.20
1103;DHT22;538;42.654;23.376;2022-12-07T01:03:38;6.60;69.70
1103;DHT22;538;42.654;23.376;2022-12-07T01:06:05;6.70;70.30
1103;DHT22;538;42.654;23.376;2022-12-07T01:08:34;6.70;69.00
1103;DHT22;538;42.654;23.376;2022-12-07T01:11:03;6.70;69.50
1103;DHT22;538;42.654;23.376;2022-12-07T01:13:31;6.70;69.20
1103;DHT22;538;42.654;23.376;2022-12-07T01:16:00;7.00;69.30
1103;DHT22;538;42.654;23.376;2022-12-07T01:18:28;6.70;69.50
1103;DHT22;538;42.654;23.376;2022-12-07T01:21:00;6.90;70.10
1103;DHT22;538;42.654;23.376;2022-12-07T01:23:28;6.70;70.30
1103;DHT22;538;42.654;23.376;2022-12-07T01:25:58;6.80;70.50
1103;DHT22;538;42.654;23.376;2022-12-07T01:28:25;6.80;68.90
1103;DHT22;538;42.654;23.376;2022-12-07T01:30:57;6.70;68.20
1103;DHT22;538;42.654;23.376;2022-12-07T01:33:26;6.60;68.70
1103;DHT22;538;42.654;23.376;2022-12-07T01:35:54;6.30;71.30
1103;DHT22;538;42.654;23.376;2022-12-07T01:38:21;6.60;72.00
1103;DHT22;538;42.654;23.376;2022-12-07T01:40:54;6.50;72.90
1103;DHT22;538;42.654;23.376;2022-12-07T01:43:24;6.60;71.80
1103;DHT22;538;42.654;23.376;2022-12-07T01:45:53;6.50;70.50
1103;DHT22;538;42.654;23.376;2022-12-07T01:48:22;6.60;71.00
1103;DHT22;538;42.654;23.376;2022-12-07T01:50:51;6.60;70.80
1103;DHT22;538;42.654;23.376;2022-12-07T01:53:21;6.60;71.10
1103;DHT22;538;42.654;23.376;2022-12-07T01:55:52;6.50;70.40
1103;DHT22;538;42.654;23.376;2022-12-07T01:58:21;6.40;71.40
1103;DHT22;538;42.654;23.376;2022-12-07T02:00:50;6.60;71.90
1103;DHT22;538;42.654;23.376;2022-12-07T02:03:21;6.60;72.60
1103;DHT22;538;42.654;23.376;2022-12-07T02:05:50;6.60;73.40
1103;DHT22;538;42.654;23.376;2022-12-07T02:08:18;6.60;72.30
1103;DHT22;538;42.654;23.376;2022-12-07T02:10:46;6.70;72.60
1103;DHT22;538;42.654;23.376;2022-12-07T02:13:16;6.60;71.50
1103;DHT22;538;42.654;23.376;2022-12-07T02:15:59;6.60;70.30
1103;DHT22;538;42.654;23.376;2022-12-07T02:18:49;6.50;71.70
1103;DHT22;538;42.654;23.376;2022-12-07T02:21:22;6.60;71.60
1103;DHT22;538;42.654;23.376;2022-12-07T02:27:09;6.60;72.20
1103;DHT22;538;42.654;23.376;2022-12-07T02:29:41;6.50;71.40
1103;DHT22;538;42.654;23.376;2022-12-07T02:32:15;6.70;71.90
1103;DHT22;538;42.654;23.376;2022-12-07T02:34:48;6.70;68.50
1103;DHT22;538;42.654;23.376;2022-12-07T02:37:25;6.80;69.00
1103;DHT22;538;42.654;23.376;2022-12-07T02:39:59;6.60;68.90
1103;DHT22;538;42.654;23.376;2022-12-07T02:42:30;6.40;71.70
1103;DHT22;538;42.654;23.376;2022-12-07T02:45:01;6.40;72.50
1103;DHT22;538;42.654;23.376;2022-12-07T02:47:29;6.30;74.20
1103;DHT22;538;42.654;23.376;2022-12-07T02:49:58;6.30;75.10
1103;DHT22;538;42.654;23.376;2022-12-07T02:52:26;6.40;79.30
1103;DHT22;538;42.654;23.376;2022-12-07T02:54:53;6.40;76.90
1103;DHT22;538;42.654;23.376;2022-12-07T02:57:33;6.40;77.30
1103;DHT22;538;42.654;23.376;2022-12-07T03:00:06;6.30;77.10
1103;DHT22;538;42.654;23.376;2022-12-07T03:02:41;6.10;78.70
1103;DHT22;538;42.654;23.376;2022-12-07T03:05:21;6.20;82.50
1103;DHT22;538;42.654;23.376;2022-12-07T03:08:00;6.00;82.90
1103;DHT22;538;42.654;23.376;2022-12-07T03:10:35;6.40;83.50
1103;DHT22;538;42.654;23.376;2022-12-07T03:13:09;6.20;83.60
1103;DHT22;538;42.654;23.376;2022-12-07T03:15:43;6.30;80.00
1103;DHT22;538;42.654;23.376;2022-12-07T03:18:16;6.30;78.20
1103;DHT22;538;42.654;23.376;2022-12-07T03:20:46;5.90;78.00
1103;DHT22;538;42.654;23.376;2022-12-07T03:23:15;6.40;75.20
1103;DHT22;538;42.654;23.376;2022-12-07T03:25:46;6.40;75.80
1103;DHT22;538;42.654;23.376;2022-12-07T03:28:17;6.40;72.70
1103;DHT22;538;42.654;23.376;2022-12-07T03:30:51;6.20;71.00
1103;DHT22;538;42.654;23.376;2022-12-07T03:33:22;6.40;71.50
1103;DHT22;538;42.654;23.376;2022-12-07T03:35:56;6.30;71.30
1103;DHT22;538;42.654;23.376;2022-12-07T03:38:31;6.30;72.30
1103;DHT22;538;42.654;23.376;2022-12-07T03:41:03;6.10;75.90
1103;DHT22;538;42.654;23.376;2022-12-07T03:43:32;6.10;79.20
1103;DHT22;538;42.654;23.376;2022-12-07T03:46:06;5.80;82.50
1103;DHT22;538;42.654;23.376;2022-12-07T03:48:41;5.90;84.90
1103;DHT22;538;42.654;23.376;2022-12-07T03:51:14;6.00;85.50
1103;DHT22;538;42.654;23.376;2022-12-07T03:53:46;6.10;84.30
1103;DHT22;538;42.654;23.376;2022-12-07T03:56:15;6.20;79.10
1103;DHT22;538;42.654;23.376;2022-12-07T03:58:43;6.20;79.40
1103;DHT22;538;42.654;23.376;2022-12-07T04:01:12;6.50;76.40
1103;DHT22;538;42.654;23.376;2022-12-07T04:03:39;6.50;74.80
1103;DHT22;538;42.654;23.376;2022-12-07T04:06:07;6.40;75.20
1103;DHT22;538;42.654;23.376;2022-12-07T04:08:34;6.40;73.20
1103;DHT22;538;42.654;23.376;2022-12-07T04:11:01;6.30;73.60
1103;DHT22;538;42.654;23.376;2022-12-07T04:13:28;6.30;74.20
1103;DHT22;538;42.654;23.376;2022-12-07T04:15:55;6.10;74.40
1103;DHT22;538;42.654;23.376;2022-12-07T04:18:24;6.20;74.40
1103;DHT22;538;42.654;23.376;2022-12-07T04:20:51;6.10;76.60
1103;DHT22;538;42.654;23.376;2022-12-07T04:23:19;6.10;77.10
1103;DHT22;538;42.654;23.376;2022-12-07T04:25:48;6.40;76.30
1103;DHT22;538;42.654;23.376;2022-12-07T04:28:15;6.20;76.50
1103;DHT22;538;42.654;23.376;2022-12-07T04:30:42;6.00;76.20
1103;DHT22;538;42.654;23.376;2022-12-07T04:33:10;5.90;78.90
1103;DHT22;538;42.654;23.376;2022-12-07T04:35:38;6.00;81.20
1103;DHT22;538;42.654;23.376;2022-12-07T04:38:05;5.80;80.20
1103;DHT22;538;42.654;23.376;2022-12-07T04:40:32;6.30;78.60
1103;DHT22;538;42.654;23.376;2022-12-07T04:43:00;6.00;78.60
1103;DHT22;538;42.654;23.376;2022-12-07T04:45:27;6.10;79.30
1103;DHT22;538;42.654;23.376;2022-12-07T04:47:54;5.80;78.40
1103;DHT22;538;42.654;23.376;2022-12-07T04:50:21;6.10;79.50
1103;DHT22;538;42.654;23.376;2022-12-07T04:52:50;5.90;79.40
1103;DHT22;538;42.654;23.376;2022-12-07T04:55:17;6.00;80.00
1103;DHT22;538;42.654;23.376;2022-12-07T04:57:44;5.90;80.80
1103;DHT22;538;42.654;23.376;2022-12-07T05:00:12;6.20;79.60
1103;DHT22;538;42.654;23.376;2022-12-07T05:02:39;6.10;80.00
1103;DHT22;538;42.654;23.376;2022-12-07T05:05:07;5.80;77.80
1103;DHT22;538;42.654;23.376;2022-12-07T05:07:34;6.00;78.70
1103;DHT22;538;42.654;23.376;2022-12-07T05:10:03;5.90;79.10
1103;DHT22;538;42.654;23.376;2022-12-07T05:12:31;5.80;78.30
1103;DHT22;538;42.654;23.376;2022-12-07T05:14:58;5.70;80.20
1103;DHT22;538;42.654;23.376;2022-12-07T05:17:25;5.70;80.60
1103;DHT22;538;42.654;23.376;2022-12-07T05:19:52;5.70;79.80
1103;DHT22;538;42.654;23.376;2022-12-07T05:22:19;5.90;81.10
1103;DHT22;538;42.654;23.376;2022-12-07T05:24:47;5.50;81.00
1103;DHT22;538;42.654;23.376;2022-12-07T05:27:15;5.60;84.70
1103;DHT22;538;42.654;23.376;2022-12-07T05:29:42;5.70;83.40
1103;DHT22;538;42.654;23.376;2022-12-07T05:32:09;5.70;81.00
1103;DHT22;538;42.654;23.376;2022-12-07T05:34:37;5.60;82.20
1103;DHT22;538;42.654;23.376;2022-12-07T05:37:04;5.70;84.00
1103;DHT22;538;42.654;23.376;2022-12-07T05:39:31;5.90;82.60
1103;DHT22;538;42.654;23.376;2022-12-07T05:41:58;5.70;81.30
1103;DHT22;538;42.654;23.376;2022-12-07T05:44:44;5.70;84.40
1103;DHT22;538;42.654;23.376;2022-12-07T05:47:12;5.90;84.30
1103;DHT22;538;42.654;23.376;2022-12-07T05:49:40;5.90;83.20
1103;DHT22;538;42.654;23.376;2022-12-07T05:52:07;6.00;81.70
1103;DHT22;538;42.654;23.376;2022-12-07T05:54:34;6.00;80.60
1103;DHT22;538;42.654;23.376;2022-12-07T05:57:02;5.80;79.60
1103;DHT22;538;42.654;23.376;2022-12-07T05:59:29;5.90;79.90
1103;DHT22;538;42.654;23.376;2022-12-07T06:01:59;5.80;81.30
1103;DHT22;538;42.654;23.376;2022-12-07T06:04:29;5.80;80.80
1103;DHT22;538;42.654;23.376;2022-12-07T06:06:58;6.00;81.10
1103;DHT22;538;42.654;23.376;2022-12-07T06:09:26;6.10;81.30
1103;DHT22;538;42.654;23.376;2022-12-07T06:11:54;6.20;81.80
1103;DHT22;538;42.654;23.376;2022-12-07T06:14:39;6.00;80.80
1103;DHT22;538;42.654;23.376;2022-12-07T06:17:08;5.90;80.70
1103;DHT22;538;42.654;23.376;2022-12-07T06:19:36;6.10;80.80
1103;DHT22;538;42.654;23.376;2022-12-07T06:22:04;6.00;80.60
1103;DHT22;538;42.654;23.376;2022-12-07T06:24:32;6.20;82.30
1103;DHT22;538;42.654;23.376;2022-12-07T06:27:00;6.10;82.80
1103;DHT22;538;42.654;23.376;2022-12-07T06:29:27;6.40;81.60
1103;DHT22;538;42.654;23.376;2022-12-07T06:31:54;6.20;80.20
1103;DHT22;538;42.654;23.376;2022-12-07T06:34:24;6.20;78.70
1103;DHT22;538;42.654;23.376;2022-12-07T06:36:51;6.60;77.60
1103;DHT22;538;42.654;23.376;2022-12-07T06:39:22;6.60;75.60
1103;DHT22;538;42.654;23.376;2022-12-07T06:41:50;6.40;74.20
1103;DHT22;538;42.654;23.376;2022-12-07T06:44:20;6.80;76.00
1103;DHT22;538;42.654;23.376;2022-12-07T06:46:48;6.60;75.10
1103;DHT22;538;42.654;23.376;2022-12-07T06:49:15;6.70;72.70
1103;DHT22;538;42.654;23.376;2022-12-07T06:51:44;6.70;74.30
1103;DHT22;538;42.654;23.376;2022-12-07T06:54:12;6.70;74.20
1103;DHT22;538;42.654;23.376;2022-12-07T06:56:40;6.60;73.80
1103;DHT22;538;42.654;23.376;2022-12-07T06:59:07;6.70;74.10
1103;DHT22;538;42.654;23.376;2022-12-07T07:01:35;6.40;73.00
1103;DHT22;538;42.654;23.376;2022-12-07T07:04:03;6.40;74.60
1103;DHT22;538;42.654;23.376;2022-12-07T07:06:30;6.50;75.30
1103;DHT22;538;42.654;23.376;2022-12-07T07:08:59;6.50;74.80
1103;DHT22;538;42.654;23.376;2022-12-07T07:11:26;6.60;73.90
1103;DHT22;538;42.654;23.376;2022-12-07T07:13:54;6.70;74.20
1103;DHT22;538;42.654;23.376;2022-12-07T07:16:23;6.60;72.50
1103;DHT22;538;42.654;23.376;2022-12-07T07:18:50;6.90;72.70
1103;DHT22;538;42.654;23.376;2022-12-07T07:21:18;6.80;72.90
1103;DHT22;538;42.654;23.376;2022-12-07T07:26:14;6.80;69.10
1103;DHT22;538;42.654;23.376;2022-12-07T07:28:41;7.00;69.90
1103;DHT22;538;42.654;23.376;2022-12-07T07:31:09;7.00;69.60
1103;DHT22;538;42.654;23.376;2022-12-07T07:33:36;7.10;67.30
1103;DHT22;538;42.654;23.376;2022-12-07T07:36:04;7.00;67.90
1103;DHT22;538;42.654;23.376;2022-12-07T07:38:31;7.00;67.50
1103;DHT22;538;42.654;23.376;2022-12-07T07:40:59;7.10;68.20
1103;DHT22;538;42.654;23.376;2022-12-07T07:43:32;7.00;65.30
1103;DHT22;538;42.654;23.376;2022-12-07T07:45:59;7.10;65.50
1103;DHT22;538;42.654;23.376;2022-12-07T07:48:27;7.10;66.00
1103;DHT22;538;42.654;23.376;2022-12-07T07:50:57;7.10;68.00
1103;DHT22;538;42.654;23.376;2022-12-07T07:53:24;7.30;63.00
1103;DHT22;538;42.654;23.376;2022-12-07T07:55:52;7.50;63.40
1103;DHT22;538;42.654;23.376;2022-12-07T07:58:20;7.60;62.20
1103;DHT22;538;42.654;23.376;2022-12-07T08:00:49;7.80;60.00
1103;DHT22;538;42.654;23.376;2022-12-07T08:03:16;8.20;59.00
1103;DHT22;538;42.654;23.376;2022-12-07T08:05:43;8.30;55.80
1103;DHT22;538;42.654;23.376;2022-12-07T08:08:11;8.50;54.20
1103;DHT22;538;42.654;23.376;2022-12-07T08:10:39;8.60;50.70
1103;DHT22;538;42.654;23.376;2022-12-07T08:13:06;8.50;47.10
1103;DHT22;538;42.654;23.376;2022-12-07T08:15:41;8.30;47.90
1103;DHT22;538;42.654;23.376;2022-12-07T08:18:10;8.30;48.50
1103;DHT22;538;42.654;23.376;2022-12-07T08:20:38;8.30;50.30
1103;DHT22;538;42.654;23.376;2022-12-07T08:23:06;8.30;49.90
1103;DHT22;538;42.654;23.376;2022-12-07T08:25:34;8.40;50.90
1103;DHT22;538;42.654;23.376;2022-12-07T08:28:01;8.10;51.00
1103;DHT22;538;42.654;23.376;2022-12-07T08:30:29;8.20;49.90
1103;DHT22;538;42.654;23.376;2022-12-07T08:32:56;8.10;50.30
1103;DHT22;538;42.654;23.376;2022-12-07T08:35:25;8.20;51.80
1103;DHT22;538;42.654;23.376;2022-12-07T08:37:52;8.30;51.20
1103;DHT22;538;42.654;23.376;2022-12-07T08:40:20;8.40;50.30
1103;DHT22;538;42.654;23.376;2022-12-07T08:42:49;8.30;48.80
1103;DHT22;538;42.654;23.376;2022-12-07T08:45:17;8.40;48.10
1103;DHT22;538;42.654;23.376;2022-12-07T08:47:47;8.50;48.10
1103;DHT22;538;42.654;23.376;2022-12-07T08:50:17;8.60;48.40
1103;DHT22;538;42.654;23.376;2022-12-07T08:52:49;8.60;48.10
1103;DHT22;538;42.654;23.376;2022-12-07T08:55:18;8.60;49.00
1103;DHT22;538;42.654;23.376;2022-12-07T08:57:45;8.60;49.10
1103;DHT22;538;42.654;23.376;2022-12-07T09:00:13;8.60;47.40
1103;DHT22;538;42.654;23.376;2022-12-07T09:02:43;8.50;46.40
1103;DHT22;538;42.654;23.376;2022-12-07T09:05:10;8.60;47.30
1103;DHT22;538;42.654;23.376;2022-12-07T09:07:38;8.80;46.00
1103;DHT22;538;42.654;23.376;2022-12-07T09:10:07;8.90;45.40
1103;DHT22;538;42.654;23.376;2022-12-07T09:12:35;8.70;46.50
1103;DHT22;538;42.654;23.376;2022-12-07T09:15:02;8.70;45.50
1103;DHT22;538;42.654;23.376;2022-12-07T09:17:32;8.70;45.00
1103;DHT22;538;42.654;23.376;2022-12-07T09:19:59;8.90;45.60
1103;DHT22;538;42.654;23.376;2022-12-07T09:22:29;8.90;45.40
1103;DHT22;538;42.654;23.376;2022-12-07T09:24:56;8.70;45.90
1103;DHT22;538;42.654;23.376;2022-12-07T09:27:24;8.90;45.30
1103;DHT22;538;42.654;23.376;2022-12-07T09:29:51;9.00;46.10
1103;DHT22;538;42.654;23.376;2022-12-07T09:32:19;9.00;45.50
1103;DHT22;538;42.654;23.376;2022-12-07T09:34:46;9.10;44.50
1103;DHT22;538;42.654;23.376;2022-12-07T09:37:13;9.00;43.50
1103;DHT22;538;42.654;23.376;2022-12-07T09:39:41;9.00;43.40
1103;DHT22;538;42.654;23.376;2022-12-07T09:42:08;9.20;41.90
1103;DHT22;538;42.654;23.376;2022-12-07T09:44:40;9.10;42.20
1103;DHT22;538;42.654;23.376;2022-12-07T09:47:09;9.30;42.00
1103;DHT22;538;42.654;23.376;2022-12-07T09:49:37;9.30;43.30
1103;DHT22;538;42.654;23.376;2022-12-07T09:52:18;9.00;43.30
1103;DHT22;538;42.654;23.376;2022-12-07T09:54:48;9.30;44.00
1103;DHT22;538;42.654;23.376;2022-12-07T09:57:16;9.50;43.50
1103;DHT22;538;42.654;23.376;2022-12-07T09:59:45;9.50;41.40
1103;DHT22;538;42.654;23.376;2022-12-07T10:02:28;9.40;39.90
1103;DHT22;538;42.654;23.376;2022-12-07T10:05:00;9.50;39.60
1103;DHT22;538;42.654;23.376;2022-12-07T10:07:28;9.60;39.80
1103;DHT22;538;42.654;23.376;2022-12-07T10:09:56;9.80;39.70
1103;DHT22;538;42.654;23.376;2022-12-07T10:12:23;9.70;39.80
1103;DHT22;538;42.654;23.376;2022-12-07T10:14:59;9.80;40.80
1103;DHT22;538;42.654;23.376;2022-12-07T10:17:34;9.70;41.30
1103;DHT22;538;42.654;23.376;2022-12-07T10:20:32;9.80;37.80
1103;DHT22;538;42.654;23.376;2022-12-07T10:23:01;10.00;37.40
1103;DHT22;538;42.654;23.376;2022-12-07T10:25:32;10.10;36.70
1103;DHT22;538;42.654;23.376;2022-12-07T10:28:02;10.00;37.10
1103;DHT22;538;42.654;23.376;2022-12-07T10:30:53;10.30;35.70
1103;DHT22;538;42.654;23.376;2022-12-07T10:33:35;10.60;33.50
1103;DHT22;538;42.654;23.376;2022-12-07T10:36:17;11.40;31.40
1103;DHT22;538;42.654;23.376;2022-12-07T10:38:46;11.50;30.80
1103;DHT22;538;42.654;23.376;2022-12-07T10:41:14;11.90;28.20
1103;DHT22;538;42.654;23.376;2022-12-07T10:43:50;12.20;25.90
1103;DHT22;538;42.654;23.376;2022-12-07T10:46:46;12.10;25.40
1103;DHT22;538;42.654;23.376;2022-12-07T10:52:26;11.20;25.80
1103;DHT22;538;42.654;23.376;2022-12-07T10:55:08;11.20;28.00
1103;DHT22;538;42.654;23.376;2022-12-07T10:57:47;11.10;27.70
1103;DHT22;538;42.654;23.376;2022-12-07T11:00:21;11.20;28.80
1103;DHT22;538;42.654;23.376;2022-12-07T11:03:17;11.20;27.70
1103;DHT22;538;42.654;23.376;2022-12-07T11:05:53;11.00;28.30
1103;DHT22;538;42.654;23.376;2022-12-07T11:08:44;11.00;29.10
1103;DHT22;538;42.654;23.376;2022-12-07T11:11:18;11.10;28.90
1103;DHT22;538;42.654;23.376;2022-12-07T11:13:52;11.10;29.20
1103;DHT22;538;42.654;23.376;2022-12-07T11:16:31;11.10;28.70
1103;DHT22;538;42.654;23.376;2022-12-07T11:19:16;11.10;28.20
1103;DHT22;538;42.654;23.376;2022-12-07T11:21:55;11.10;27.20
1103;DHT22;538;42.654;23.376;2022-12-07T11:24:30;11.20;26.80
1103;DHT22;538;42.654;23.376;2022-12-07T11:27:09;11.10;26.30
1103;DHT22;538;42.654;23.376;2022-12-07T11:30:12;11.00;27.10
1103;DHT22;538;42.654;23.376;2022-12-07T11:32:59;10.90;27.90
1103;DHT22;538;42.654;23.376;2022-12-07T11:35:38;10.80;27.90
1103;DHT22;538;42.654;23.376;2022-12-07T11:38:14;10.70;28.50
1103;DHT22;538;42.654;23.376;2022-12-07T11:40:44;10.80;27.90
1103;DHT22;538;42.654;23.376;2022-12-07T11:43:19;10.90;28.30
1103;DHT22;538;42.654;23.376;2022-12-07T11:45:52;10.70;28.60
1103;DHT22;538;42.654;23.376;2022-12-07T11:48:25;10.60;29.10
1103;DHT22;538;42.654;23.376;2022-12-07T11:50:58;10.70;29.40
1103;DHT22;538;42.654;23.376;2022-12-07T11:53:29;11.00;28.70
1103;DHT22;538;42.654;23.376;2022-12-07T11:56:03;11.00;27.80
1103;DHT22;538;42.654;23.376;2022-12-07T11:58:45;11.10;27.60
1103;DHT22;538;42.654;23.376;2022-12-07T12:01:26;11.20;27.50
1103;DHT22;538;42.654;23.376;2022-12-07T12:04:01;11.40;26.80
1103;DHT22;538;42.654;23.376;2022-12-07T12:06:31;11.60;26.90
1103;DHT22;538;42.654;23.376;2022-12-07T12:09:04;12.30;25.70
1103;DHT22;538;42.654;23.376;2022-12-07T12:11:47;12.50;24.10
1103;DHT22;538;42.654;23.376;2022-12-07T12:14:40;12.60;23.30
1103;DHT22;538;42.654;23.376;2022-12-07T12:17:42;12.60;22.70
1103;DHT22;538;42.654;23.376;2022-12-07T12:20:19;12.50;22.50
1103;DHT22;538;42.654;23.376;2022-12-07T12:22:53;12.50;22.60
1103;DHT22;538;42.654;23.376;2022-12-07T12:25:26;12.60;22.50
1103;DHT22;538;42.654;23.376;2022-12-07T12:27:56;13.30;22.50
1103;DHT22;538;42.654;23.376;2022-12-07T12:30:29;13.70;19.90
1103;DHT22;538;42.654;23.376;2022-12-07T12:33:06;14.00;19.50
1103;DHT22;538;42.654;23.376;2022-12-07T12:35:39;14.50;18.70
1103;DHT22;538;42.654;23.376;2022-12-07T12:38:28;14.90;17.50
1103;DHT22;538;42.654;23.376;2022-12-07T12:40:56;14.10;17.30
1103;DHT22;538;42.654;23.376;2022-12-07T12:43:43;13.80;18.30
1103;DHT22;538;42.654;23.376;2022-12-07T12:49:43;13.30;20.20
1103;DHT22;538;42.654;23.376;2022-12-07T12:58:38;14.60;17.80
1103;DHT22;538;42.654;23.376;2022-12-07T13:01:33;14.90;16.90
1103;DHT22;538;42.654;23.376;2022-12-07T13:04:21;14.70;16.80
1103;DHT22;538;42.654;23.376;2022-12-07T13:06:50;14.30;16.50
1103;DHT22;538;42.654;23.376;2022-12-07T13:09:23;14.00;17.30
1103;DHT22;538;42.654;23.376;2022-12-07T13:12:00;14.50;18.00
1103;DHT22;538;42.654;23.376;2022-12-07T13:18:00;15.70;15.50
1103;DHT22;538;42.654;23.376;2022-12-07T13:20:49;16.70;13.80
1103;DHT22;538;42.654;23.376;2022-12-07T13:23:25;17.60;12.60
1103;DHT22;538;42.654;23.376;2022-12-07T13:26:03;17.80;11.40
1103;DHT22;538;42.654;23.376;2022-12-07T13:28:42;17.80;11.00
1103;DHT22;538;42.654;23.376;2022-12-07T13:31:30;17.50;10.80
1103;DHT22;538;42.654;23.376;2022-12-07T13:33:58;16.90;12.00
1103;DHT22;538;42.654;23.376;2022-12-07T13:36:27;16.70;12.20
1103;DHT22;538;42.654;23.376;2022-12-07T13:38:57;16.50;12.50
1103;DHT22;538;42.654;23.376;2022-12-07T13:41:25;16.30;13.00
1103;DHT22;538;42.654;23.376;2022-12-07T13:44:01;16.20;13.20
1103;DHT22;538;42.654;23.376;2022-12-07T13:46:36;16.10;13.30
1103;DHT22;538;42.654;23.376;2022-12-07T13:49:21;16.00;13.70
1103;DHT22;538;42.654;23.376;2022-12-07T13:51:49;15.80;13.70
1103;DHT22;538;42.654;23.376;2022-12-07T13:54:17;15.10;14.30
1103;DHT22;538;42.654;23.376;2022-12-07T13:56:48;14.70;15.30
1103;DHT22;538;42.654;23.376;2022-12-07T13:59:19;14.30;16.20
1103;DHT22;538;42.654;23.376;2022-12-07T14:01:49;13.90;16.80
1103;DHT22;538;42.654;23.376;2022-12-07T14:04:17;13.60;18.30
1103;DHT22;538;42.654;23.376;2022-12-07T14:06:49;13.50;18.90
1103;DHT22;538;42.654;23.376;2022-12-07T14:09:19;13.30;19.70
1103;DHT22;538;42.654;23.376;2022-12-07T14:11:49;13.10;19.70
1103;DHT22;538;42.654;23.376;2022-12-07T14:14:20;13.10;20.30
1103;DHT22;538;42.654;23.376;2022-12-07T14:17:02;12.90;21.00
1103;DHT22;538;42.654;23.376;2022-12-07T14:19:45;12.60;22.00
1103;DHT22;538;42.654;23.376;2022-12-07T14:22:25;12.50;22.30
1103;DHT22;538;42.654;23.376;2022-12-07T14:25:13;12.20;22.70
1103;DHT22;538;42.654;23.376;2022-12-07T14:27:49;12.30;23.20
1103;DHT22;538;42.654;23.376;2022-12-07T14:30:20;12.20;23.70
1103;DHT22;538;42.654;23.376;2022-12-07T14:32:50;12.00;24.20
1103;DHT22;538;42.654;23.376;2022-12-07T14:35:18;11.80;25.20
1103;DHT22;538;42.654;23.376;2022-12-07T14:37:47;11.60;25.20
1103;DHT22;538;42.654;23.376;2022-12-07T14:40:17;11.70;25.60
1103;DHT22;538;42.654;23.376;2022-12-07T14:42:45;11.60;25.40
1103;DHT22;538;42.654;23.376;2022-12-07T14:45:15;11.60;26.10
1103;DHT22;538;42.654;23.376;2022-12-07T14:47:45;11.50;26.20
1103;DHT22;538;42.654;23.376;2022-12-07T14:50:13;11.60;26.30
1103;DHT22;538;42.654;23.376;2022-12-07T14:52:42;11.40;26.20
1103;DHT22;538;42.654;23.376;2022-12-07T14:55:14;11.30;26.50
1103;DHT22;538;42.654;23.376;2022-12-07T14:57:43;11.30;27.40
1103;DHT22;538;42.654;23.376;2022-12-07T15:00:14;11.10;27.70
1103;DHT22;538;42.654;23.376;2022-12-07T15:02:44;11.00;28.80
1103;DHT22;538;42.654;23.376;2022-12-07T15:05:11;10.90;28.60
1103;DHT22;538;42.654;23.376;2022-12-07T15:07:39;10.90;28.40
1103;DHT22;538;42.654;23.376;2022-12-07T15:10:10;11.00;28.80
1103;DHT22;538;42.654;23.376;2022-12-07T15:12:40;10.90;29.60
1103;DHT22;538;42.654;23.376;2022-12-07T15:15:08;10.70;30.20
1103;DHT22;538;42.654;23.376;2022-12-07T15:17:35;10.70;30.80
1103;DHT22;538;42.654;23.376;2022-12-07T15:20:05;10.60;32.00
1103;DHT22;538;42.654;23.376;2022-12-07T15:22:32;10.70;32.20
1103;DHT22;538;42.654;23.376;2022-12-07T15:24:59;10.50;32.10
1103;DHT22;538;42.654;23.376;2022-12-07T15:27:27;10.30;33.20
1103;DHT22;538;42.654;23.376;2022-12-07T15:29:54;10.50;34.20
1103;DHT22;538;42.654;23.376;2022-12-07T15:32:21;10.40;35.00
1103;DHT22;538;42.654;23.376;2022-12-07T15:34:49;10.20;34.40
1103;DHT22;538;42.654;23.376;2022-12-07T15:37:18;10.20;35.00
1103;DHT22;538;42.654;23.376;2022-12-07T15:39:45;9.90;36.60
1103;DHT22;538;42.654;23.376;2022-12-07T15:42:13;10.00;36.10
1103;DHT22;538;42.654;23.376;2022-12-07T15:44:40;9.80;38.70
1103;DHT22;538;42.654;23.376;2022-12-07T15:47:26;9.60;39.70
1103;DHT22;538;42.654;23.376;2022-12-07T15:49:53;9.30;41.10
1103;DHT22;538;42.654;23.376;2022-12-07T15:52:22;9.40;41.70
1103;DHT22;538;42.654;23.376;2022-12-07T15:54:49;9.40;42.40
1103;DHT22;538;42.654;23.376;2022-12-07T15:57:16;9.30;43.50
1103;DHT22;538;42.654;23.376;2022-12-07T15:59:43;9.10;44.50
1103;DHT22;538;42.654;23.376;2022-12-07T16:02:10;9.30;45.00
1103;DHT22;538;42.654;23.376;2022-12-07T16:04:38;9.10;45.00
1103;DHT22;538;42.654;23.376;2022-12-07T16:07:05;9.00;45.70
1103;DHT22;538;42.654;23.376;2022-12-07T16:09:33;9.40;45.20
1103;DHT22;538;42.654;23.376;2022-12-07T16:12:00;9.20;45.40
1103;DHT22;538;42.654;23.376;2022-12-07T16:14:27;9.10;45.80
1103;DHT22;538;42.654;23.376;2022-12-07T16:16:55;9.30;46.90
1103;DHT22;538;42.654;23.376;2022-12-07T16:19:22;9.30;45.90
1103;DHT22;538;42.654;23.376;2022-12-07T16:21:49;9.20;46.20
1103;DHT22;538;42.654;23.376;2022-12-07T16:24:16;9.30;45.90
1103;DHT22;538;42.654;23.376;2022-12-07T16:26:45;9.20;46.40
1103;DHT22;538;42.654;23.376;2022-12-07T16:29:13;9.20;46.40
1103;DHT22;538;42.654;23.376;2022-12-07T16:31:41;9.10;46.00
1103;DHT22;538;42.654;23.376;2022-12-07T16:34:09;9.10;46.70
1103;DHT22;538;42.654;23.376;2022-12-07T16:36:36;9.20;46.50
1103;DHT22;538;42.654;23.376;2022-12-07T16:39:04;9.30;46.20
1103;DHT22;538;42.654;23.376;2022-12-07T16:41:32;9.10;45.50
1103;DHT22;538;42.654;23.376;2022-12-07T16:44:02;9.10;47.10
1103;DHT22;538;42.654;23.376;2022-12-07T16:46:31;9.00;47.90
1103;DHT22;538;42.654;23.376;2022-12-07T16:48:59;8.90;47.20
1103;DHT22;538;42.654;23.376;2022-12-07T16:51:26;8.90;48.60
1103;DHT22;538;42.654;23.376;2022-12-07T16:53:57;9.00;48.40
1103;DHT22;538;42.654;23.376;2022-12-07T16:56:24;8.90;48.10
1103;DHT22;538;42.654;23.376;2022-12-07T16:58:54;8.70;48.30